Time;durP1;ratioP1;P1;durP2;ratioP2;P2;SDS_P1;SDS_P2;PMS_P1;PMS_P2;Temp;Humidity;BMP_temperature;BMP_pressure;BME280_temperature;BME280_humidity;BME280_pressure;Samples;Min_cycle;Max_cycle;Signal;HPM_P1;HPM_P2
2023/03/07 00:00:42;;;;;;;6.83;3.50;;;;;;;5.22;83.09;98993.00;5068384;28;20463;-49
2023/03/07 00:03:13;;;;;;;11.70;5.20;;;;;;;5.06;83.75;98995.16;5073423;28;20461;-49
2023/03/07 00:05:40;;;;;;;13.17;3.50;;;;;;;5.13;83.35;98985.34;5061635;28;20446;-49
2023/03/07 00:08:07;;;;;;;8.53;5.50;;;;;;;5.16;83.48;98985.25;5062104;28;20455;-49
2023/03/07 00:10:33;;;;;;;4.70;4.07;;;;;;;4.98;85.17;98981.34;5068497;28;21060;-49
2023/03/07 00:13:00;;;;;;;6.10;3.53;;;;;;;5.05;84.45;98980.25;5068618;28;20457;-49
2023/03/07 00:15:26;;;;;;;3.17;2.97;;;;;;;4.90;84.90;98978.06;5069036;28;20451;-50
2023/03/07 00:17:52;;;;;;;5.77;4.40;;;;;;;5.02;84.71;98967.19;5068890;28;20541;-50
2023/03/07 00:20:19;;;;;;;5.13;2.87;;;;;;;5.19;84.45;98971.97;5068653;28;20467;-49
2023/03/07 00:22:45;;;;;;;10.10;5.20;;;;;;;5.05;85.16;98971.50;5068899;28;20449;-50
2023/03/07 00:25:12;;;;;;;4.90;4.60;;;;;;;5.19;84.79;98971.97;5062170;28;20450;-49
2023/03/07 00:27:38;;;;;;;5.30;4.43;;;;;;;5.11;85.15;98965.22;5061669;28;20461;-49
2023/03/07 00:30:05;;;;;;;8.73;4.77;;;;;;;5.24;85.65;98959.56;5061512;28;20858;-49
2023/03/07 00:32:32;;;;;;;6.60;3.97;;;;;;;4.99;85.39;98961.16;5061892;28;20558;-49
2023/03/07 00:34:59;;;;;;;18.23;5.33;;;;;;;5.09;85.95;98954.72;5067846;28;20451;-50
2023/03/07 00:37:26;;;;;;;5.83;3.47;;;;;;;5.26;85.18;98960.38;5068319;28;20445;-49
2023/03/07 00:39:53;;;;;;;4.37;4.10;;;;;;;5.44;84.90;98958.09;5062440;28;20472;-50
2023/03/07 00:42:19;;;;;;;5.20;3.13;;;;;;;5.11;85.52;98955.53;5061019;28;20451;-49
2023/03/07 00:44:45;;;;;;;3.30;3.00;;;;;;;5.23;86.16;98957.84;5074509;28;20456;-50
2023/03/07 00:47:12;;;;;;;3.43;3.03;;;;;;;5.27;86.58;98946.28;5060878;28;20447;-49
2023/03/07 00:49:38;;;;;;;7.20;2.93;;;;;;;5.29;85.45;98939.19;5066221;28;20494;-49
2023/03/07 00:52:05;;;;;;;8.60;2.50;;;;;;;5.02;87.05;98956.66;5067822;28;20452;-51
2023/03/07 00:54:31;;;;;;;4.33;3.90;;;;;;;5.11;87.41;98949.41;5054121;28;20454;-49
2023/03/07 00:56:58;;;;;;;5.67;3.13;;;;;;;4.89;88.16;98942.09;5067542;28;20453;-49
2023/03/07 00:59:24;;;;;;;5.47;2.97;;;;;;;5.01;88.30;98933.00;5062648;28;20515;-49
2023/03/07 01:01:51;;;;;;;2.60;2.50;;;;;;;4.91;88.84;98937.66;5067033;28;20926;-49
2023/03/07 01:04:17;;;;;;;9.60;4.13;;;;;;;4.91;88.72;98944.69;5066356;28;20453;-49
2023/03/07 01:06:44;;;;;;;4.03;3.63;;;;;;;4.97;88.93;98942.75;5068219;28;20500;-50
2023/03/07 01:09:10;;;;;;;4.70;4.40;;;;;;;5.06;88.29;98945.13;5063145;28;20497;-49
2023/03/07 01:11:37;;;;;;;1.93;1.83;;;;;;;5.31;87.91;98931.25;5060533;28;20450;-49
2023/03/07 01:14:05;;;;;;;8.07;3.70;;;;;;;4.93;89.03;98933.19;5074311;28;20942;-50
2023/03/07 01:16:34;;;;;;;5.50;2.60;;;;;;;5.00;88.62;98932.13;5060257;28;20462;-50
2023/03/07 01:19:04;;;;;;;8.23;3.60;;;;;;;5.10;89.37;98927.47;5064475;28;20990;-49
2023/03/07 01:21:36;;;;;;;5.50;3.60;;;;;;;4.95;90.38;98933.19;5067156;28;20465;-50
2023/03/07 01:24:07;;;;;;;12.03;5.03;;;;;;;5.13;89.33;98929.16;5064436;28;20453;-51
2023/03/07 01:26:34;;;;;;;7.17;3.13;;;;;;;4.84;90.18;98927.34;5058996;28;20450;-50
2023/03/07 01:29:02;;;;;;;7.90;5.30;;;;;;;5.05;90.28;98918.84;5062279;28;20478;-50
2023/03/07 01:31:29;;;;;;;4.73;3.97;;;;;;;4.99;90.10;98913.75;5067489;28;20451;-56
2023/03/07 01:33:56;;;;;;;7.53;4.93;;;;;;;5.09;90.39;98919.63;5065350;28;20538;-49
2023/03/07 01:36:28;;;;;;;6.70;2.70;;;;;;;4.99;90.19;98916.38;5060566;28;21007;-49
2023/03/07 01:39:03;;;;;;;7.23;3.80;;;;;;;5.13;90.33;98914.22;5060846;28;20463;-50
2023/03/07 01:41:31;;;;;;;4.03;3.77;;;;;;;4.95;91.07;98915.63;5061381;28;20453;-49
2023/03/07 01:43:59;;;;;;;3.77;2.57;;;;;;;5.17;89.88;98918.47;5069972;28;20453;-49
2023/03/07 01:46:44;;;;;;;3.00;2.77;;;;;;;4.98;90.66;98912.03;5066281;28;20893;-50
2023/03/07 01:49:18;;;;;;;2.90;1.60;;;;;;;5.05;91.05;98905.66;5067140;28;20490;-49
2023/03/07 01:51:49;;;;;;;6.80;3.40;;;;;;;5.07;91.75;98903.84;5065189;28;20507;-49
2023/03/07 01:54:18;;;;;;;2.67;2.57;;;;;;;5.07;91.84;98898.56;5054544;28;20532;-49
2023/03/07 01:56:46;;;;;;;2.13;1.93;;;;;;;4.96;91.06;98893.66;5066146;28;20452;-49
2023/03/07 01:59:18;;;;;;;5.50;4.03;;;;;;;4.80;92.40;98886.19;5060198;28;20465;-50
2023/03/07 02:01:44;;;;;;;4.90;2.93;;;;;;;4.76;92.36;98880.16;5066036;28;20946;-49
2023/03/07 02:04:27;;;;;;;3.87;3.47;;;;;;;5.13;91.84;98874.72;5066127;28;20932;-49
2023/03/07 02:06:53;;;;;;;2.53;2.33;;;;;;;4.99;91.37;98871.63;5066408;28;20446;-50
2023/03/07 02:09:22;;;;;;;4.40;2.10;;;;;;;5.14;91.60;98867.69;5062040;28;20519;-49
2023/03/07 02:11:49;;;;;;;5.60;5.17;;;;;;;5.18;90.88;98867.53;5059097;28;20847;-49
2023/03/07 02:14:15;;;;;;;2.23;2.13;;;;;;;5.10;91.38;98866.91;5072541;28;20820;-50
2023/03/07 02:16:42;;;;;;;3.30;3.00;;;;;;;4.95;91.93;98860.34;5059086;28;20519;-50
2023/03/07 02:19:20;;;;;;;4.63;2.00;;;;;;;4.89;91.99;98854.34;5062820;28;20474;-49
2023/03/07 02:22:08;;;;;;;2.37;2.27;;;;;;;5.05;91.53;98856.50;5066309;28;20576;-49
2023/03/07 02:24:43;;;;;;;1.03;0.93;;;;;;;5.19;91.61;98853.44;5065973;28;20446;-49
2023/03/07 02:27:11;;;;;;;2.07;1.97;;;;;;;4.96;91.60;98848.03;5061924;28;20444;-49
2023/03/07 02:29:38;;;;;;;3.87;1.63;;;;;;;5.11;91.57;98844.94;5058864;28;20497;-49
2023/03/07 02:32:06;;;;;;;2.97;2.77;;;;;;;4.92;92.68;98835.84;5063192;28;20451;-49
2023/03/07 02:34:32;;;;;;;1.80;1.70;;;;;;;4.95;92.16;98828.72;5066470;28;20485;-49
2023/03/07 02:37:15;;;;;;;1.47;1.37;;;;;;;4.88;92.13;98832.44;5063341;28;20462;-49
2023/03/07 02:39:44;;;;;;;1.63;1.30;;;;;;;4.88;92.42;98828.94;5059346;28;20910;-49
2023/03/07 02:42:17;;;;;;;1.80;1.70;;;;;;;4.88;93.02;98826.31;5059940;28;20454;-49
2023/03/07 02:44:45;;;;;;;1.33;1.30;;;;;;;5.10;92.74;98824.78;5069733;28;20441;-50
2023/03/07 02:47:12;;;;;;;1.67;1.57;;;;;;;4.89;92.38;98821.00;5058905;28;20454;-49
2023/03/07 02:49:38;;;;;;;0.93;0.93;;;;;;;4.95;92.49;98827.88;5064285;28;20693;-49
2023/03/07 02:52:05;;;;;;;2.43;1.07;;;;;;;5.04;91.48;98828.44;5065668;28;20450;-50
2023/03/07 02:54:31;;;;;;;2.30;1.67;;;;;;;5.17;90.70;98826.31;5059762;28;20450;-49
2023/03/07 02:56:58;;;;;;;4.13;1.03;;;;;;;5.08;92.33;98815.22;5071003;28;20946;-50
2023/03/07 02:59:24;;;;;;;1.60;1.33;;;;;;;4.97;92.97;98811.13;5059986;28;20482;-49
2023/03/07 03:01:50;;;;;;;1.33;1.13;;;;;;;5.15;92.97;98814.97;5065867;28;20457;-49
2023/03/07 03:04:17;;;;;;;2.50;1.90;;;;;;;4.98;92.73;98817.25;5064292;28;20454;-49
2023/03/07 03:06:43;;;;;;;6.67;1.90;;;;;;;5.02;92.26;98808.34;5065953;28;20503;-49
2023/03/07 03:09:10;;;;;;;2.63;1.57;;;;;;;5.17;91.89;98813.13;5060803;28;20503;-49
2023/03/07 03:11:36;;;;;;;3.30;1.80;;;;;;;5.05;92.43;98813.50;5059790;28;20577;-49
2023/03/07 03:14:03;;;;;;;1.23;0.97;;;;;;;5.14;92.48;98815.88;5067088;28;20448;-49
2023/03/07 03:16:30;;;;;;;2.00;1.20;;;;;;;4.88;93.27;98806.13;5071336;28;20450;-49
2023/03/07 03:18:56;;;;;;;1.50;1.50;;;;;;;5.02;93.26;98805.69;5064191;28;20893;-49
2023/03/07 03:21:23;;;;;;;3.03;1.47;;;;;;;5.10;92.35;98802.84;5065851;28;20450;-50
2023/03/07 03:23:49;;;;;;;2.83;2.00;;;;;;;5.04;92.97;98803.88;5060492;28;20968;-50
2023/03/07 03:26:15;;;;;;;8.60;3.50;;;;;;;5.02;93.00;98795.16;5058716;28;20457;-49
2023/03/07 03:28:42;;;;;;;2.33;2.13;;;;;;;4.92;93.37;98788.44;5064202;28;20512;-49
2023/03/07 03:31:10;;;;;;;1.80;1.70;;;;;;;5.05;93.61;98782.75;5066021;28;20496;-49
2023/03/07 03:33:38;;;;;;;4.33;3.17;;;;;;;5.11;92.98;98791.41;5062396;28;20452;-49
2023/03/07 03:36:10;;;;;;;4.47;2.17;;;;;;;5.05;92.57;98781.91;5062504;28;20450;-49
2023/03/07 03:38:36;;;;;;;2.10;1.40;;;;;;;4.92;93.25;98775.28;5067267;28;20481;-49
2023/03/07 03:41:05;;;;;;;1.83;1.73;;;;;;;4.93;93.80;98774.38;5070294;28;20492;-49
2023/03/07 03:43:31;;;;;;;2.13;2.03;;;;;;;4.88;94.18;98771.03;5065881;28;20450;-49
2023/03/07 03:45:58;;;;;;;3.80;3.50;;;;;;;5.04;92.76;98770.50;5073373;28;20457;-49
2023/03/07 03:48:25;;;;;;;3.27;1.57;;;;;;;4.98;93.29;98765.44;5065787;28;20449;-49
2023/03/07 03:51:04;;;;;;;1.80;1.70;;;;;;;5.14;92.52;98770.25;5062605;28;20497;-49
2023/03/07 03:53:32;;;;;;;1.90;1.80;;;;;;;5.31;92.89;98765.28;5064243;28;20789;-49
2023/03/07 03:56:04;;;;;;;5.43;3.03;;;;;;;5.07;93.13;98764.28;5075640;28;20510;-49
2023/03/07 03:58:31;;;;;;;6.17;4.23;;;;;;;5.00;92.94;98770.66;5062697;28;20458;-49
2023/03/07 04:01:00;;;;;;;4.97;3.90;;;;;;;5.13;92.73;98766.75;5068854;28;20446;-50
2023/03/07 04:03:27;;;;;;;1.17;1.07;;;;;;;4.99;92.96;98756.63;5074753;28;20453;-49
2023/03/07 04:05:59;;;;;;;2.00;1.80;;;;;;;5.00;93.58;98760.13;5064692;28;20446;-49
2023/03/07 04:08:25;;;;;;;6.10;3.03;;;;;;;4.96;93.02;98750.59;5062564;28;20453;-49
2023/03/07 04:10:51;;;;;;;4.10;3.07;;;;;;;5.05;93.14;98760.84;5067373;28;20500;-49
2023/03/07 04:13:18;;;;;;;3.37;2.97;;;;;;;5.04;92.56;98752.06;5070668;28;20806;-49
2023/03/07 04:15:44;;;;;;;3.63;1.93;;;;;;;5.16;93.27;98749.97;5067059;28;20512;-49
2023/03/07 04:18:10;;;;;;;3.60;2.57;;;;;;;5.22;92.92;98747.16;5069045;28;20535;-49
2023/03/07 04:20:37;;;;;;;4.37;2.60;;;;;;;5.30;91.33;98743.34;5063577;28;20466;-49
2023/03/07 04:23:03;;;;;;;4.30;1.53;;;;;;;5.20;91.89;98747.19;5061222;28;20497;-49
2023/03/07 04:25:31;;;;;;;2.20;2.10;;;;;;;5.22;91.86;98740.13;5065784;28;20451;-49
2023/03/07 04:27:57;;;;;;;2.80;2.60;;;;;;;5.32;91.45;98735.41;5067600;28;20454;-48
2023/03/07 04:30:25;;;;;;;3.57;1.50;;;;;;;5.08;92.31;98731.81;5064542;28;20486;-49
2023/03/07 04:32:51;;;;;;;13.27;5.07;;;;;;;5.27;91.69;98730.28;5062124;28;20463;-50
2023/03/07 04:35:18;;;;;;;6.03;5.20;;;;;;;5.07;92.28;98722.16;5066002;28;20497;-49
2023/03/07 04:37:44;;;;;;;6.47;2.53;;;;;;;5.12;92.61;98722.88;5071980;28;20515;-49
2023/03/07 04:40:12;;;;;;;7.03;5.63;;;;;;;5.06;92.67;98731.81;5065480;28;21047;-49
2023/03/07 04:42:38;;;;;;;6.70;3.70;;;;;;;4.97;92.13;98723.38;5068427;28;20454;-49
2023/03/07 04:45:05;;;;;;;3.47;2.93;;;;;;;5.04;92.17;98730.16;5073275;28;20454;-49
2023/03/07 04:47:31;;;;;;;3.13;1.93;;;;;;;5.21;92.25;98719.97;5060830;28;20457;-49
2023/03/07 04:49:58;;;;;;;10.27;5.37;;;;;;;5.30;92.10;98716.16;5064428;28;20489;-50
2023/03/07 04:52:24;;;;;;;2.50;2.20;;;;;;;5.22;92.00;98718.19;5068147;28;20450;-49
2023/03/07 04:54:51;;;;;;;3.03;2.13;;;;;;;5.24;91.47;98713.72;5054170;28;20454;-49
2023/03/07 04:57:17;;;;;;;2.63;2.20;;;;;;;5.02;92.09;98716.19;5067486;28;20837;-49
2023/03/07 04:59:44;;;;;;;2.60;1.43;;;;;;;5.06;92.00;98718.66;5064301;28;20982;-49
2023/03/07 05:02:12;;;;;;;17.27;3.40;;;;;;;5.12;91.47;98722.03;5068219;28;20457;-49
2023/03/07 05:04:38;;;;;;;15.73;5.23;;;;;;;5.05;92.07;98711.66;5064230;28;20457;-49
2023/03/07 05:07:05;;;;;;;3.53;2.77;;;;;;;5.22;91.33;98711.16;5068460;28;20496;-49
2023/03/07 05:09:31;;;;;;;1.17;1.17;;;;;;;5.22;91.11;98712.94;5065032;28;20873;-50
2023/03/07 05:11:58;;;;;;;4.87;2.97;;;;;;;5.13;91.24;98707.94;5060963;28;20493;-49
2023/03/07 05:14:24;;;;;;;2.93;2.83;;;;;;;5.24;91.44;98711.97;5074731;28;20442;-49
2023/03/07 05:16:51;;;;;;;6.27;2.50;;;;;;;5.01;91.96;98709.19;5061431;28;20442;-50
2023/03/07 05:19:17;;;;;;;2.70;2.60;;;;;;;5.23;91.25;98706.75;5064383;28;20463;-49
2023/03/07 05:21:44;;;;;;;4.63;4.37;;;;;;;5.19;91.54;98699.81;5067464;28;20470;-50
2023/03/07 05:24:11;;;;;;;2.00;1.90;;;;;;;5.15;92.18;98706.13;5064573;28;20515;-48
2023/03/07 05:26:37;;;;;;;3.30;2.83;;;;;;;5.11;91.37;98696.59;5060699;28;20449;-49
2023/03/07 05:29:03;;;;;;;3.57;3.10;;;;;;;5.12;91.80;98690.41;5064120;28;20478;-49
2023/03/07 05:31:30;;;;;;;2.40;2.20;;;;;;;5.25;91.79;98695.25;5058145;28;20559;-49
2023/03/07 05:33:56;;;;;;;6.73;3.77;;;;;;;5.10;90.98;98698.38;5062416;28;20451;-49
2023/03/07 05:36:22;;;;;;;4.20;2.57;;;;;;;5.25;90.72;98691.75;5067096;28;20446;-51
2023/03/07 05:38:52;;;;;;;2.80;2.30;;;;;;;5.15;91.26;98690.31;5064653;28;20482;-48
2023/03/07 05:41:18;;;;;;;5.70;4.00;;;;;;;5.16;91.01;98697.31;5060125;28;20450;-49
2023/03/07 05:43:45;;;;;;;2.60;2.47;;;;;;;5.06;91.33;98687.06;5070740;28;20468;-49
2023/03/07 05:46:12;;;;;;;3.47;3.27;;;;;;;5.18;90.75;98680.53;5068337;28;20458;-50
2023/03/07 05:48:39;;;;;;;1.63;1.53;;;;;;;5.25;91.27;98695.25;5065230;28;20560;-49
2023/03/07 05:51:05;;;;;;;3.40;2.17;;;;;;;5.04;91.51;98688.03;5059405;28;20554;-49
2023/03/07 05:53:32;;;;;;;5.53;2.27;;;;;;;5.19;91.00;98697.19;5060984;28;20451;-49
2023/03/07 05:55:58;;;;;;;1.60;1.50;;;;;;;5.30;90.44;98692.44;5072859;28;20446;-49
2023/03/07 05:58:24;;;;;;;5.13;2.97;;;;;;;5.27;90.35;98692.56;5060214;28;20557;-49
2023/03/07 06:00:51;;;;;;;2.90;2.10;;;;;;;4.97;91.66;98697.91;5066299;28;20501;-48
2023/03/07 06:03:17;;;;;;;2.30;2.20;;;;;;;5.12;90.57;98685.16;5072573;28;20462;-49
2023/03/07 06:05:44;;;;;;;8.77;4.37;;;;;;;5.19;91.44;98692.78;5059446;28;20503;-48
2023/03/07 06:08:10;;;;;;;2.93;2.30;;;;;;;5.19;90.06;98697.19;5060153;28;20560;-49
2023/03/07 06:10:38;;;;;;;4.03;2.03;;;;;;;5.17;90.47;98675.31;5065895;28;20548;-48
2023/03/07 06:13:05;;;;;;;3.20;2.93;;;;;;;4.90;91.02;98684.97;5065875;28;20453;-49
2023/03/07 06:15:31;;;;;;;4.07;3.77;;;;;;;5.04;91.25;98682.75;5059412;28;20450;-49
2023/03/07 06:17:58;;;;;;;6.17;3.40;;;;;;;4.89;91.16;98697.28;5059269;28;20451;-49
2023/03/07 06:20:24;;;;;;;4.73;2.00;;;;;;;5.13;90.89;98686.88;5065789;28;20884;-48
2023/03/07 06:22:51;;;;;;;2.10;2.00;;;;;;;5.03;91.13;98691.56;5065874;28;20472;-48
2023/03/07 06:25:20;;;;;;;4.30;2.77;;;;;;;5.17;90.38;98693.75;5066067;28;20450;-48
2023/03/07 06:27:47;;;;;;;4.57;1.87;;;;;;;5.00;90.50;98694.31;5065800;28;20966;-48
2023/03/07 06:30:14;;;;;;;2.83;2.00;;;;;;;5.21;90.81;98698.03;5060149;28;20491;-49
2023/03/07 06:32:40;;;;;;;2.57;2.47;;;;;;;5.14;90.29;98701.75;5059292;28;20450;-50
2023/03/07 06:35:07;;;;;;;3.67;3.47;;;;;;;5.19;90.44;98692.78;5064904;28;20455;-50
2023/03/07 06:37:34;;;;;;;3.30;2.20;;;;;;;5.10;90.33;98698.38;5064556;28;20446;-49
2023/03/07 06:40:04;;;;;;;3.20;2.90;;;;;;;5.28;89.94;98695.13;5060064;28;20998;-49
2023/03/07 06:42:31;;;;;;;1.80;1.67;;;;;;;5.17;89.90;98696.38;5059269;28;20449;-48
2023/03/07 06:44:57;;;;;;;1.93;1.80;;;;;;;5.18;91.40;98692.84;5072610;28;20938;-48
2023/03/07 06:47:24;;;;;;;8.77;2.17;;;;;;;5.16;90.35;98690.25;5058949;28;20447;-49
2023/03/07 06:49:51;;;;;;;11.83;2.60;;;;;;;5.35;90.13;98701.06;5063559;28;20979;-49
2023/03/07 06:52:18;;;;;;;2.20;2.00;;;;;;;5.24;89.97;98693.53;5065855;28;20499;-49
2023/03/07 06:54:44;;;;;;;3.33;2.80;;;;;;;5.38;89.29;98693.06;5062114;28;20446;-48
2023/03/07 06:57:10;;;;;;;3.53;2.57;;;;;;;5.54;89.23;98699.53;5069724;28;20465;-49
2023/03/07 06:59:37;;;;;;;22.23;4.70;;;;;;;5.30;90.33;98706.47;5062087;28;20498;-49
2023/03/07 07:02:04;;;;;;;3.50;3.23;;;;;;;5.24;90.14;98697.94;5065699;28;20469;-49
2023/03/07 07:04:31;;;;;;;2.77;2.57;;;;;;;5.56;89.00;98702.13;5062910;28;20458;-49
2023/03/07 07:06:58;;;;;;;3.60;2.50;;;;;;;5.60;88.48;98701.94;5065607;28;20462;-49
2023/03/07 07:09:24;;;;;;;3.57;2.37;;;;;;;5.51;89.04;98706.69;5064690;28;20473;-49
2023/03/07 07:11:51;;;;;;;2.50;2.30;;;;;;;5.64;87.98;98702.72;5061583;28;20573;-49
2023/03/07 07:14:17;;;;;;;2.70;2.40;;;;;;;5.57;87.79;98694.16;5076168;28;20453;-49
2023/03/07 07:16:44;;;;;;;2.50;2.30;;;;;;;5.80;88.21;98697.78;5062791;28;20548;-49
2023/03/07 07:19:10;;;;;;;6.90;3.90;;;;;;;5.57;87.90;98696.78;5065872;28;20528;-50
2023/03/07 07:21:37;;;;;;;2.80;2.60;;;;;;;5.71;88.28;98693.69;5071271;28;20482;-50
2023/03/07 07:24:03;;;;;;;3.57;2.00;;;;;;;5.73;87.84;98693.63;5067120;28;20528;-49
2023/03/07 07:26:30;;;;;;;3.57;3.27;;;;;;;5.65;88.53;98694.75;5063912;28;20461;-49
2023/03/07 07:28:56;;;;;;;3.70;3.40;;;;;;;5.88;86.53;98690.44;5067750;28;20466;-49
2023/03/07 07:31:22;;;;;;;4.40;2.90;;;;;;;5.96;86.72;98690.22;5070767;28;20836;-50
2023/03/07 07:33:49;;;;;;;2.80;1.50;;;;;;;6.15;86.61;98686.84;5066386;28;20449;-49
2023/03/07 07:36:16;;;;;;;4.90;2.50;;;;;;;6.06;87.09;98691.63;5062481;28;20449;-50
2023/03/07 07:38:42;;;;;;;6.30;1.37;;;;;;;5.93;86.05;98693.81;5065200;28;20454;-48
2023/03/07 07:41:08;;;;;;;4.20;2.57;;;;;;;5.95;86.63;98694.63;5069380;28;20447;-49
2023/03/07 07:43:35;;;;;;;2.10;2.00;;;;;;;5.98;86.67;98680.47;5066633;28;20450;-49
2023/03/07 07:46:03;;;;;;;2.97;2.10;;;;;;;5.99;86.76;98684.81;5075817;28;20446;-49
2023/03/07 07:48:31;;;;;;;5.70;3.80;;;;;;;6.19;86.37;98682.34;5064344;28;20465;-49
2023/03/07 07:51:01;;;;;;;2.53;2.40;;;;;;;6.18;85.96;98689.41;5068707;28;20482;-49
2023/03/07 07:53:28;;;;;;;1.63;1.57;;;;;;;6.39;84.49;98678.94;5068018;28;20446;-49
2023/03/07 07:55:54;;;;;;;2.20;2.00;;;;;;;6.52;84.47;98683.69;5075014;28;20604;-49
2023/03/07 07:58:20;;;;;;;2.00;1.90;;;;;;;6.66;84.28;98684.94;5062567;28;20500;-49
2023/03/07 08:00:47;;;;;;;2.90;2.70;;;;;;;6.79;83.44;98688.84;5068923;28;21067;-48
2023/03/07 08:03:13;;;;;;;2.37;2.27;;;;;;;6.82;83.25;98686.94;5074082;28;20977;-49
2023/03/07 08:05:47;;;;;;;3.73;3.40;;;;;;;6.55;82.96;98688.00;5061708;28;20864;-49
2023/03/07 08:08:15;;;;;;;1.80;1.70;;;;;;;6.55;83.10;98677.44;5062369;28;20897;-50
2023/03/07 08:10:43;;;;;;;2.97;2.83;;;;;;;6.59;83.49;98689.63;5067448;28;20478;-50
2023/03/07 08:13:14;;;;;;;2.73;2.53;;;;;;;6.51;83.46;98675.84;5069493;28;20456;-50
2023/03/07 08:15:41;;;;;;;2.30;2.20;;;;;;;6.71;82.68;98677.69;5066410;28;20443;-50
2023/03/07 08:18:09;;;;;;;4.17;2.23;;;;;;;6.81;82.46;98669.38;5068313;28;20473;-50
2023/03/07 08:20:37;;;;;;;2.70;2.50;;;;;;;6.76;82.45;98666.06;5064107;28;20515;-50
2023/03/07 08:23:04;;;;;;;3.90;3.47;;;;;;;6.76;81.79;98668.69;5061200;28;20596;-50
2023/03/07 08:25:30;;;;;;;7.60;1.83;;;;;;;6.80;81.38;98669.44;5065372;28;20459;-50
2023/03/07 08:27:57;;;;;;;2.50;2.30;;;;;;;6.76;81.53;98659.91;5068051;28;20561;-50
2023/03/07 08:30:27;;;;;;;3.33;1.97;;;;;;;7.02;80.78;98661.53;5064503;28;20473;-50
2023/03/07 08:32:54;;;;;;;2.93;2.60;;;;;;;6.89;80.92;98658.50;5061076;28;20500;-50
2023/03/07 08:35:22;;;;;;;1.10;1.00;;;;;;;6.84;81.28;98663.97;5064749;28;20504;-50
2023/03/07 08:37:53;;;;;;;3.03;2.13;;;;;;;7.08;80.40;98667.41;5068028;28;20473;-50
2023/03/07 08:40:19;;;;;;;2.03;1.83;;;;;;;6.89;79.68;98668.22;5065458;28;20891;-50
2023/03/07 08:42:46;;;;;;;3.43;2.60;;;;;;;6.86;81.05;98676.28;5060835;28;20507;-50
2023/03/07 08:45:12;;;;;;;1.63;1.53;;;;;;;6.67;81.11;98658.50;5074636;28;20438;-50
2023/03/07 08:47:38;;;;;;;2.80;1.87;;;;;;;7.06;80.58;98663.13;5061031;28;20452;-50
2023/03/07 08:50:05;;;;;;;3.30;2.40;;;;;;;7.05;80.17;98662.25;5062964;28;20856;-50
2023/03/07 08:52:32;;;;;;;2.30;1.80;;;;;;;7.30;79.19;98667.41;5067486;28;20486;-50
2023/03/07 08:54:58;;;;;;;2.43;2.23;;;;;;;7.59;78.52;98675.88;5064459;28;20446;-50
2023/03/07 08:57:25;;;;;;;3.67;2.93;;;;;;;7.32;78.73;98660.25;5069204;28;20943;-50
2023/03/07 08:59:51;;;;;;;17.70;2.83;;;;;;;7.38;78.96;98667.91;5065972;28;20550;-50
2023/03/07 09:02:18;;;;;;;2.37;2.17;;;;;;;7.40;78.98;98663.47;5066974;28;20950;-51
2023/03/07 09:04:44;;;;;;;4.57;4.13;;;;;;;7.50;77.58;98652.47;5062674;28;20497;-50
2023/03/07 09:07:11;;;;;;;1.90;1.80;;;;;;;7.56;78.23;98660.16;5067566;28;20496;-50
2023/03/07 09:09:37;;;;;;;1.73;1.63;;;;;;;7.51;77.70;98656.84;5065075;28;20466;-50
2023/03/07 09:12:04;;;;;;;2.57;2.37;;;;;;;7.48;77.57;98651.69;5060320;28;21012;-50
2023/03/07 09:14:30;;;;;;;2.60;2.50;;;;;;;7.60;76.51;98652.03;5073791;28;20837;-50
2023/03/07 09:16:56;;;;;;;5.87;2.30;;;;;;;7.86;76.16;98657.97;5055315;28;20451;-50
2023/03/07 09:19:23;;;;;;;25.67;3.30;;;;;;;7.76;75.76;98648.72;5065610;28;20476;-49
2023/03/07 09:21:50;;;;;;;2.80;2.63;;;;;;;7.92;76.21;98658.53;5060265;28;20503;-50
2023/03/07 09:24:16;;;;;;;3.70;3.07;;;;;;;7.81;75.76;98650.25;5062016;28;20442;-50
2023/03/07 09:26:43;;;;;;;6.80;2.30;;;;;;;8.13;75.22;98647.94;5067902;28;20481;-50
2023/03/07 09:29:09;;;;;;;2.50;2.40;;;;;;;8.05;74.79;98653.56;5065444;28;20530;-49
2023/03/07 09:31:36;;;;;;;6.00;2.00;;;;;;;8.22;74.10;98650.16;5059308;28;20860;-51
2023/03/07 09:34:04;;;;;;;3.50;1.47;;;;;;;8.30;74.37;98645.38;5061684;28;20447;-50
2023/03/07 09:36:30;;;;;;;1.73;1.50;;;;;;;8.16;74.63;98638.06;5066637;28;20447;-51
2023/03/07 09:38:57;;;;;;;1.63;1.50;;;;;;;8.44;73.08;98650.06;5065573;28;20496;-50
2023/03/07 09:41:32;;;;;;;17.17;1.73;;;;;;;8.04;73.08;98643.91;5060144;28;20481;-50
2023/03/07 09:44:13;;;;;;;1.50;1.40;;;;;;;8.33;72.46;98646.09;5070232;28;20456;-51
2023/03/07 09:47:02;;;;;;;4.10;2.30;;;;;;;8.34;72.45;98636.41;5060780;28;20441;-50
2023/03/07 09:49:39;;;;;;;19.23;2.47;;;;;;;8.25;71.92;98637.66;5059836;28;20482;-50
2023/03/07 09:52:13;;;;;;;31.37;2.70;;;;;;;8.21;72.18;98632.56;5059780;28;20486;-53
2023/03/07 09:54:52;;;;;;;1.20;1.10;;;;;;;8.12;71.90;98630.34;5073579;28;20454;-50
2023/03/07 09:57:24;;;;;;;2.50;1.93;;;;;;;8.09;71.68;98631.34;5102141;28;20446;-50
2023/03/07 10:00:17;;;;;;;1.67;1.07;;;;;;;8.16;70.83;98631.91;5061511;28;20473;-50
2023/03/07 10:03:12;;;;;;;4.90;1.93;;;;;;;8.36;70.81;98633.66;5062156;28;20947;-50
2023/03/07 10:05:47;;;;;;;1.33;1.33;;;;;;;8.28;70.76;98626.06;5059422;28;20504;-50
2023/03/07 10:08:17;;;;;;;1.10;0.70;;;;;;;8.52;70.76;98619.66;5059413;28;20477;-51
2023/03/07 10:11:22;;;;;;;2.97;2.03;;;;;;;8.27;69.96;98617.28;5065132;28;21018;-50
2023/03/07 10:14:28;;;;;;;3.77;2.87;;;;;;;8.39;69.73;98610.59;5064881;28;20477;-50
2023/03/07 10:17:17;;;;;;;2.87;1.40;;;;;;;8.41;69.22;98614.00;5066228;28;20985;-50
2023/03/07 10:19:48;;;;;;;3.37;3.17;;;;;;;8.55;69.16;98613.38;5065891;28;21046;-49
2023/03/07 10:22:27;;;;;;;1.60;1.50;;;;;;;8.61;69.18;98611.28;5061745;28;20444;-50
2023/03/07 10:25:00;;;;;;;2.20;2.03;;;;;;;8.56;68.83;98605.34;5058931;28;20962;-50
2023/03/07 10:27:29;;;;;;;1.80;1.57;;;;;;;8.84;68.92;98599.56;5060711;28;20473;-50
2023/03/07 10:29:58;;;;;;;5.27;2.37;;;;;;;9.14;67.72;98604.28;5065704;28;20471;-50
2023/03/07 10:32:38;;;;;;;2.97;2.53;;;;;;;9.27;66.27;98601.88;5065364;28;20496;-50
2023/03/07 10:35:10;;;;;;;2.20;2.00;;;;;;;8.99;66.54;98597.09;5060192;28;20949;-50
2023/03/07 10:37:49;;;;;;;2.63;2.43;;;;;;;9.24;66.43;98588.78;5058942;28;20450;-50
2023/03/07 10:40:42;;;;;;;3.53;3.07;;;;;;;9.29;65.78;98582.31;5061980;28;20582;-50
2023/03/07 10:43:22;;;;;;;11.63;2.20;;;;;;;9.34;64.56;98579.44;5058888;28;20452;-50
2023/03/07 10:45:48;;;;;;;2.83;1.67;;;;;;;9.17;64.69;98580.28;5069570;28;20512;-50
2023/03/07 10:48:18;;;;;;;5.83;1.70;;;;;;;9.05;65.18;98587.06;5062084;28;20446;-50
2023/03/07 10:50:56;;;;;;;9.80;2.20;;;;;;;9.10;64.64;98574.44;5114220;22;20907;-56
2023/03/07 10:53:25;;;;;;;2.60;2.40;;;;;;;9.33;64.93;98569.78;5115569;28;20487;-55
2023/03/07 10:56:06;;;;;;;1.93;1.83;;;;;;;9.29;63.54;98565.53;5110077;28;20812;-54
2023/03/07 10:58:34;;;;;;;1.50;1.40;;;;;;;9.18;63.56;98558.13;5109679;28;20444;-56
2023/03/07 11:01:14;;;;;;;4.60;2.43;;;;;;;9.09;63.94;98574.53;5106824;28;20503;-54
2023/03/07 11:03:51;;;;;;;2.30;2.20;;;;;;;9.17;63.16;98572.31;5094544;28;20440;-62
2023/03/07 11:06:52;;;;;;;7.53;2.97;;;;;;;9.39;63.05;98567.66;5103424;28;20489;-57
2023/03/07 11:09:22;;;;;;;5.00;2.20;;;;;;;9.71;61.98;98560.66;5093692;28;20479;-55
2023/03/07 11:11:55;;;;;;;1.23;0.90;;;;;;;9.36;62.78;98559.88;5101650;28;20512;-55
2023/03/07 11:14:22;;;;;;;2.10;1.90;;;;;;;9.20;63.26;98546.53;5098790;28;20447;-55
2023/03/07 11:16:59;;;;;;;7.10;1.73;;;;;;;9.31;63.32;98556.56;5108498;28;20455;-55
2023/03/07 11:19:36;;;;;;;2.17;2.03;;;;;;;9.45;62.86;98551.41;5106907;28;20460;-54
2023/03/07 11:22:32;;;;;;;5.10;2.30;;;;;;;9.31;63.42;98553.91;5089896;28;20444;-54
2023/03/07 11:25:25;;;;;;;4.43;2.53;;;;;;;9.47;63.60;98551.34;5101475;28;20444;-54
2023/03/07 11:27:54;;;;;;;1.60;1.50;;;;;;;9.39;63.47;98565.00;5101603;28;20445;-54
2023/03/07 11:30:46;;;;;;;3.03;2.80;;;;;;;9.57;63.54;98547.25;5105820;28;20491;-57
2023/03/07 11:33:19;;;;;;;4.03;2.90;;;;;;;9.74;63.38;98549.06;5106311;28;20485;-54
2023/03/07 11:35:48;;;;;;;2.10;1.63;;;;;;;9.85;63.35;98549.31;5106789;28;20443;-54
2023/03/07 11:38:48;;;;;;;2.87;2.67;;;;;;;9.78;63.48;98542.63;5101508;28;20448;-59
2023/03/07 11:41:34;;;;;;;2.50;2.30;;;;;;;9.87;63.04;98538.59;5100686;28;20496;-55
2023/03/07 11:44:18;;;;;;;3.23;2.23;;;;;;;9.69;63.04;98545.75;5100506;28;20490;-54
2023/03/07 11:47:11;;;;;;;1.93;1.83;;;;;;;9.71;62.80;98539.44;5104250;28;20444;-57
2023/03/07 11:49:49;;;;;;;7.63;1.30;;;;;;;9.56;63.26;98545.56;5101800;28;20471;-55
2023/03/07 11:52:43;;;;;;;2.73;1.70;;;;;;;9.61;63.37;98537.38;5101056;28;20568;-55